sensor_id;sensor_type;location;lat;lon;timestamp;P1;durP1;ratioP1;P2;durP2;ratioP2
30380;SDS011;17169;50.966;11.038;2023-07-20T00:01:52;10.00;;;3.38;;
30380;SDS011;17169;50.966;11.038;2023-07-20T00:04:54;8.25;;;3.15;;
30380;SDS011;17169;50.966;11.038;2023-07-20T00:07:57;10.30;;;3.35;;
30380;SDS011;17169;50.966;11.038;2023-07-20T00:10:59;7.00;;;3.25;;
30380;SDS011;17169;50.966;11.038;2023-07-20T00:14:03;8.60;;;3.70;;
30380;SDS011;17169;50.966;11.038;2023-07-20T00:17:06;8.35;;;3.88;;
30380;SDS011;17169;50.966;11.038;2023-07-20T00:20:08;7.38;;;3.92;;
30380;SDS011;17169;50.966;11.038;2023-07-20T00:23:11;12.73;;;4.20;;
30380;SDS011;17169;50.966;11.038;2023-07-20T00:26:14;6.47;;;3.55;;
30380;SDS011;17169;50.966;11.038;2023-07-20T00:29:19;7.38;;;4.10;;
30380;SDS011;17169;50.966;11.038;2023-07-20T00:32:21;8.93;;;3.88;;
30380;SDS011;17169;50.966;11.038;2023-07-20T00:35:23;10.43;;;4.07;;
30380;SDS011;17169;50.966;11.038;2023-07-20T00:38:26;6.85;;;4.13;;
30380;SDS011;17169;50.966;11.038;2023-07-20T00:41:28;9.13;;;3.80;;
30380;SDS011;17169;50.966;11.038;2023-07-20T00:44:32;10.50;;;4.63;;
30380;SDS011;17169;50.966;11.038;2023-07-20T00:47:35;12.48;;;4.28;;
30380;SDS011;17169;50.966;11.038;2023-07-20T00:50:38;9.82;;;4.22;;
30380;SDS011;17169;50.966;11.038;2023-07-20T00:53:41;13.40;;;4.50;;
30380;SDS011;17169;50.966;11.038;2023-07-20T00:56:44;11.20;;;4.65;;
30380;SDS011;17169;50.966;11.038;2023-07-20T00:59:48;8.05;;;4.53;;
30380;SDS011;17169;50.966;11.038;2023-07-20T01:02:51;8.13;;;4.40;;
30380;SDS011;17169;50.966;11.038;2023-07-20T01:05:54;7.85;;;4.63;;
30380;SDS011;17169;50.966;11.038;2023-07-20T01:09:07;7.95;;;4.28;;
30380;SDS011;17169;50.966;11.038;2023-07-20T01:12:17;9.90;;;4.43;;
30380;SDS011;17169;50.966;11.038;2023-07-20T01:15:26;10.07;;;4.40;;
30380;SDS011;17169;50.966;11.038;2023-07-20T01:18:28;10.48;;;4.25;;
30380;SDS011;17169;50.966;11.038;2023-07-20T01:21:31;8.60;;;4.10;;
30380;SDS011;17169;50.966;11.038;2023-07-20T01:24:41;8.07;;;4.22;;
30380;SDS011;17169;50.966;11.038;2023-07-20T01:27:59;7.97;;;4.57;;
30380;SDS011;17169;50.966;11.038;2023-07-20T01:31:24;8.07;;;3.90;;
30380;SDS011;17169;50.966;11.038;2023-07-20T01:34:27;8.85;;;4.63;;
30380;SDS011;17169;50.966;11.038;2023-07-20T01:37:31;7.75;;;3.72;;
30380;SDS011;17169;50.966;11.038;2023-07-20T01:40:34;7.38;;;3.90;;
30380;SDS011;17169;50.966;11.038;2023-07-20T01:43:37;6.13;;;3.67;;
30380;SDS011;17169;50.966;11.038;2023-07-20T01:46:41;6.32;;;3.30;;
30380;SDS011;17169;50.966;11.038;2023-07-20T01:49:43;5.97;;;3.20;;
30380;SDS011;17169;50.966;11.038;2023-07-20T01:52:45;7.70;;;3.65;;
30380;SDS011;17169;50.966;11.038;2023-07-20T01:55:48;7.20;;;3.30;;
30380;SDS011;17169;50.966;11.038;2023-07-20T01:58:50;5.85;;;3.50;;
30380;SDS011;17169;50.966;11.038;2023-07-20T02:01:54;10.90;;;3.75;;
30380;SDS011;17169;50.966;11.038;2023-07-20T02:04:56;5.82;;;3.45;;
30380;SDS011;17169;50.966;11.038;2023-07-20T02:07:59;6.00;;;3.45;;
30380;SDS011;17169;50.966;11.038;2023-07-20T02:11:01;8.77;;;3.88;;
30380;SDS011;17169;50.966;11.038;2023-07-20T02:14:05;4.28;;;3.08;;
30380;SDS011;17169;50.966;11.038;2023-07-20T02:17:08;6.82;;;3.33;;
30380;SDS011;17169;50.966;11.038;2023-07-20T02:20:11;7.60;;;3.33;;
30380;SDS011;17169;50.966;11.038;2023-07-20T02:23:14;14.45;;;3.42;;
30380;SDS011;17169;50.966;11.038;2023-07-20T02:26:16;6.15;;;3.08;;
30380;SDS011;17169;50.966;11.038;2023-07-20T02:29:19;7.28;;;3.20;;
30380;SDS011;17169;50.966;11.038;2023-07-20T02:32:22;5.35;;;3.63;;
30380;SDS011;17169;50.966;11.038;2023-07-20T02:35:25;9.35;;;3.70;;
30380;SDS011;17169;50.966;11.038;2023-07-20T02:38:27;6.30;;;3.20;;
30380;SDS011;17169;50.966;11.038;2023-07-20T02:41:30;9.10;;;3.30;;
30380;SDS011;17169;50.966;11.038;2023-07-20T02:44:32;4.82;;;2.65;;
30380;SDS011;17169;50.966;11.038;2023-07-20T02:47:36;7.20;;;3.83;;
30380;SDS011;17169;50.966;11.038;2023-07-20T02:50:38;8.40;;;3.40;;
30380;SDS011;17169;50.966;11.038;2023-07-20T02:53:40;11.00;;;3.70;;
30380;SDS011;17169;50.966;11.038;2023-07-20T02:56:43;8.32;;;3.28;;
30380;SDS011;17169;50.966;11.038;2023-07-20T02:59:45;8.40;;;3.20;;
30380;SDS011;17169;50.966;11.038;2023-07-20T03:02:49;7.25;;;3.08;;
30380;SDS011;17169;50.966;11.038;2023-07-20T03:05:56;10.30;;;3.70;;
30380;SDS011;17169;50.966;11.038;2023-07-20T03:08:58;8.23;;;3.17;;
30380;SDS011;17169;50.966;11.038;2023-07-20T03:12:00;6.45;;;3.13;;
30380;SDS011;17169;50.966;11.038;2023-07-20T03:15:05;8.50;;;3.75;;
30380;SDS011;17169;50.966;11.038;2023-07-20T03:18:10;8.77;;;3.10;;
30380;SDS011;17169;50.966;11.038;2023-07-20T03:21:12;8.70;;;3.45;;
30380;SDS011;17169;50.966;11.038;2023-07-20T03:24:14;9.85;;;3.22;;
30380;SDS011;17169;50.966;11.038;2023-07-20T03:27:17;7.55;;;3.70;;
30380;SDS011;17169;50.966;11.038;2023-07-20T03:30:20;5.88;;;2.70;;
30380;SDS011;17169;50.966;11.038;2023-07-20T03:33:26;6.07;;;3.17;;
30380;SDS011;17169;50.966;11.038;2023-07-20T03:36:30;12.85;;;3.20;;
30380;SDS011;17169;50.966;11.038;2023-07-20T03:39:33;11.48;;;3.38;;
30380;SDS011;17169;50.966;11.038;2023-07-20T03:42:35;8.38;;;3.25;;
30380;SDS011;17169;50.966;11.038;2023-07-20T03:45:39;10.73;;;3.08;;
30380;SDS011;17169;50.966;11.038;2023-07-20T03:48:42;8.38;;;3.13;;
30380;SDS011;17169;50.966;11.038;2023-07-20T03:51:45;6.20;;;2.88;;
30380;SDS011;17169;50.966;11.038;2023-07-20T03:54:47;12.43;;;3.33;;
30380;SDS011;17169;50.966;11.038;2023-07-20T03:57:49;9.05;;;3.60;;
30380;SDS011;17169;50.966;11.038;2023-07-20T04:00:52;8.27;;;2.85;;
30380;SDS011;17169;50.966;11.038;2023-07-20T04:03:56;7.57;;;3.28;;
30380;SDS011;17169;50.966;11.038;2023-07-20T04:06:58;8.45;;;3.20;;
30380;SDS011;17169;50.966;11.038;2023-07-20T04:10:00;6.25;;;2.78;;
30380;SDS011;17169;50.966;11.038;2023-07-20T04:13:03;8.88;;;2.83;;
30380;SDS011;17169;50.966;11.038;2023-07-20T04:16:05;8.60;;;3.13;;
30380;SDS011;17169;50.966;11.038;2023-07-20T04:19:09;5.40;;;2.70;;
30380;SDS011;17169;50.966;11.038;2023-07-20T04:22:11;7.95;;;2.78;;
30380;SDS011;17169;50.966;11.038;2023-07-20T04:25:16;9.57;;;2.77;;
30380;SDS011;17169;50.966;11.038;2023-07-20T04:28:18;7.28;;;3.13;;
30380;SDS011;17169;50.966;11.038;2023-07-20T04:31:21;6.50;;;2.97;;
30380;SDS011;17169;50.966;11.038;2023-07-20T04:34:25;5.85;;;2.60;;
30380;SDS011;17169;50.966;11.038;2023-07-20T04:37:27;9.85;;;3.05;;
30380;SDS011;17169;50.966;11.038;2023-07-20T04:40:29;11.85;;;3.40;;
30380;SDS011;17169;50.966;11.038;2023-07-20T04:43:32;8.82;;;3.00;;
30380;SDS011;17169;50.966;11.038;2023-07-20T04:46:34;11.35;;;3.17;;
30380;SDS011;17169;50.966;11.038;2023-07-20T04:49:38;12.70;;;3.28;;
30380;SDS011;17169;50.966;11.038;2023-07-20T04:52:40;5.22;;;2.65;;
30380;SDS011;17169;50.966;11.038;2023-07-20T04:55:47;8.13;;;3.42;;
30380;SDS011;17169;50.966;11.038;2023-07-20T04:58:51;9.27;;;3.28;;
30380;SDS011;17169;50.966;11.038;2023-07-20T05:01:53;11.30;;;3.15;;
30380;SDS011;17169;50.966;11.038;2023-07-20T05:04:57;8.02;;;2.88;;
30380;SDS011;17169;50.966;11.038;2023-07-20T05:07:59;7.90;;;2.72;;
30380;SDS011;17169;50.966;11.038;2023-07-20T05:11:01;13.00;;;3.20;;
30380;SDS011;17169;50.966;11.038;2023-07-20T05:14:04;9.55;;;3.83;;
30380;SDS011;17169;50.966;11.038;2023-07-20T05:17:06;13.18;;;3.55;;
30380;SDS011;17169;50.966;11.038;2023-07-20T05:20:10;10.50;;;2.83;;
30380;SDS011;17169;50.966;11.038;2023-07-20T05:23:13;13.30;;;3.38;;
30380;SDS011;17169;50.966;11.038;2023-07-20T05:26:16;9.82;;;3.22;;
30380;SDS011;17169;50.966;11.038;2023-07-20T05:29:18;5.38;;;2.88;;
30380;SDS011;17169;50.966;11.038;2023-07-20T05:32:20;17.33;;;3.33;;
30380;SDS011;17169;50.966;11.038;2023-07-20T05:35:25;11.55;;;3.20;;
30380;SDS011;17169;50.966;11.038;2023-07-20T05:38:27;12.98;;;3.90;;
30380;SDS011;17169;50.966;11.038;2023-07-20T05:41:30;9.23;;;3.35;;
30380;SDS011;17169;50.966;11.038;2023-07-20T05:44:32;11.43;;;3.72;;
30380;SDS011;17169;50.966;11.038;2023-07-20T05:47:35;8.57;;;3.38;;
30380;SDS011;17169;50.966;11.038;2023-07-20T05:50:38;9.65;;;3.40;;
30380;SDS011;17169;50.966;11.038;2023-07-20T05:53:44;15.32;;;4.63;;
30380;SDS011;17169;50.966;11.038;2023-07-20T05:56:46;10.18;;;4.28;;
30380;SDS011;17169;50.966;11.038;2023-07-20T05:59:48;9.15;;;3.08;;
30380;SDS011;17169;50.966;11.038;2023-07-20T06:02:51;10.68;;;3.88;;
30380;SDS011;17169;50.966;11.038;2023-07-20T06:05:59;7.85;;;3.47;;
30380;SDS011;17169;50.966;11.038;2023-07-20T06:09:02;6.93;;;3.42;;
30380;SDS011;17169;50.966;11.038;2023-07-20T06:12:06;13.27;;;3.58;;
30380;SDS011;17169;50.966;11.038;2023-07-20T06:15:23;10.75;;;3.00;;
30380;SDS011;17169;50.966;11.038;2023-07-20T06:18:26;10.00;;;4.45;;
30380;SDS011;17169;50.966;11.038;2023-07-20T06:21:30;7.00;;;3.33;;
30380;SDS011;17169;50.966;11.038;2023-07-20T06:24:33;11.48;;;3.63;;
30380;SDS011;17169;50.966;11.038;2023-07-20T06:27:35;14.23;;;3.83;;
30380;SDS011;17169;50.966;11.038;2023-07-20T06:30:37;9.38;;;3.58;;
30380;SDS011;17169;50.966;11.038;2023-07-20T06:33:40;13.93;;;3.30;;
30380;SDS011;17169;50.966;11.038;2023-07-20T06:36:44;8.10;;;3.70;;
30380;SDS011;17169;50.966;11.038;2023-07-20T06:39:46;10.48;;;3.75;;
30380;SDS011;17169;50.966;11.038;2023-07-20T06:42:48;7.95;;;3.78;;
30380;SDS011;17169;50.966;11.038;2023-07-20T06:45:51;9.18;;;3.60;;
30380;SDS011;17169;50.966;11.038;2023-07-20T06:48:54;11.13;;;4.78;;
30380;SDS011;17169;50.966;11.038;2023-07-20T06:51:58;10.38;;;3.80;;
30380;SDS011;17169;50.966;11.038;2023-07-20T06:55:01;6.45;;;3.13;;
30380;SDS011;17169;50.966;11.038;2023-07-20T06:58:04;5.25;;;2.88;;
30380;SDS011;17169;50.966;11.038;2023-07-20T07:01:07;8.05;;;3.00;;
30380;SDS011;17169;50.966;11.038;2023-07-20T07:04:10;5.35;;;3.63;;
30380;SDS011;17169;50.966;11.038;2023-07-20T07:07:14;6.45;;;2.35;;
30380;SDS011;17169;50.966;11.038;2023-07-20T07:10:17;6.22;;;2.20;;
30380;SDS011;17169;50.966;11.038;2023-07-20T07:13:19;5.53;;;2.13;;
30380;SDS011;17169;50.966;11.038;2023-07-20T07:16:22;4.35;;;2.70;;
30380;SDS011;17169;50.966;11.038;2023-07-20T07:19:24;6.53;;;2.40;;
30380;SDS011;17169;50.966;11.038;2023-07-20T07:22:28;4.45;;;2.10;;
30380;SDS011;17169;50.966;11.038;2023-07-20T07:25:31;3.77;;;2.17;;
30380;SDS011;17169;50.966;11.038;2023-07-20T07:28:33;5.80;;;2.20;;
30380;SDS011;17169;50.966;11.038;2023-07-20T07:31:35;4.78;;;2.20;;
30380;SDS011;17169;50.966;11.038;2023-07-20T07:34:39;4.28;;;2.30;;
30380;SDS011;17169;50.966;11.038;2023-07-20T07:37:42;4.13;;;2.03;;
30380;SDS011;17169;50.966;11.038;2023-07-20T07:40:47;5.32;;;2.65;;
30380;SDS011;17169;50.966;11.038;2023-07-20T07:43:49;5.25;;;1.92;;
30380;SDS011;17169;50.966;11.038;2023-07-20T07:46:51;8.20;;;2.53;;
30380;SDS011;17169;50.966;11.038;2023-07-20T07:49:54;4.95;;;2.33;;
30380;SDS011;17169;50.966;11.038;2023-07-20T07:52:57;7.65;;;2.50;;
30380;SDS011;17169;50.966;11.038;2023-07-20T07:56:00;5.45;;;2.58;;
30380;SDS011;17169;50.966;11.038;2023-07-20T07:59:04;5.63;;;2.42;;
30380;SDS011;17169;50.966;11.038;2023-07-20T08:02:06;6.38;;;2.40;;
30380;SDS011;17169;50.966;11.038;2023-07-20T08:05:08;6.82;;;2.97;;
30380;SDS011;17169;50.966;11.038;2023-07-20T08:08:12;5.70;;;2.60;;
30380;SDS011;17169;50.966;11.038;2023-07-20T08:11:15;5.05;;;2.60;;
30380;SDS011;17169;50.966;11.038;2023-07-20T08:14:18;5.45;;;2.58;;
30380;SDS011;17169;50.966;11.038;2023-07-20T08:17:20;5.00;;;2.15;;
30380;SDS011;17169;50.966;11.038;2023-07-20T08:20:23;3.22;;;2.10;;
30380;SDS011;17169;50.966;11.038;2023-07-20T08:23:28;6.28;;;2.65;;
30380;SDS011;17169;50.966;11.038;2023-07-20T08:26:30;4.85;;;1.80;;
30380;SDS011;17169;50.966;11.038;2023-07-20T08:29:33;5.07;;;2.40;;
30380;SDS011;17169;50.966;11.038;2023-07-20T08:32:35;4.80;;;2.45;;
30380;SDS011;17169;50.966;11.038;2023-07-20T08:35:37;5.03;;;2.63;;
30380;SDS011;17169;50.966;11.038;2023-07-20T08:38:41;5.32;;;2.70;;
30380;SDS011;17169;50.966;11.038;2023-07-20T08:41:43;4.32;;;3.03;;
30380;SDS011;17169;50.966;11.038;2023-07-20T08:44:46;7.70;;;2.63;;
30380;SDS011;17169;50.966;11.038;2023-07-20T08:47:50;9.20;;;3.00;;
30380;SDS011;17169;50.966;11.038;2023-07-20T08:50:53;5.40;;;2.60;;
30380;SDS011;17169;50.966;11.038;2023-07-20T08:53:58;4.18;;;2.67;;
30380;SDS011;17169;50.966;11.038;2023-07-20T08:57:01;6.97;;;2.55;;
30380;SDS011;17169;50.966;11.038;2023-07-20T09:00:05;6.40;;;2.70;;
30380;SDS011;17169;50.966;11.038;2023-07-20T09:03:11;5.07;;;2.13;;
30380;SDS011;17169;50.966;11.038;2023-07-20T09:06:13;6.15;;;2.63;;
30380;SDS011;17169;50.966;11.038;2023-07-20T09:09:17;3.92;;;2.20;;
30380;SDS011;17169;50.966;11.038;2023-07-20T09:12:20;4.88;;;2.50;;
30380;SDS011;17169;50.966;11.038;2023-07-20T09:15:22;4.90;;;2.30;;
30380;SDS011;17169;50.966;11.038;2023-07-20T09:18:25;4.78;;;2.20;;
30380;SDS011;17169;50.966;11.038;2023-07-20T09:21:29;3.43;;;2.03;;
30380;SDS011;17169;50.966;11.038;2023-07-20T09:24:33;6.78;;;2.38;;
30380;SDS011;17169;50.966;11.038;2023-07-20T09:27:36;4.10;;;1.92;;
30380;SDS011;17169;50.966;11.038;2023-07-20T09:30:39;5.28;;;2.08;;
30380;SDS011;17169;50.966;11.038;2023-07-20T09:33:41;5.63;;;2.35;;
30380;SDS011;17169;50.966;11.038;2023-07-20T09:36:44;6.68;;;2.28;;
30380;SDS011;17169;50.966;11.038;2023-07-20T09:39:48;6.18;;;2.55;;
30380;SDS011;17169;50.966;11.038;2023-07-20T09:42:54;5.90;;;2.67;;
30380;SDS011;17169;50.966;11.038;2023-07-20T09:46:00;10.73;;;4.13;;
30380;SDS011;17169;50.966;11.038;2023-07-20T09:49:03;3.53;;;2.13;;
30380;SDS011;17169;50.966;11.038;2023-07-20T09:52:10;6.00;;;2.72;;
30380;SDS011;17169;50.966;11.038;2023-07-20T09:55:15;4.70;;;2.67;;
30380;SDS011;17169;50.966;11.038;2023-07-20T09:58:18;5.10;;;2.25;;
30380;SDS011;17169;50.966;11.038;2023-07-20T10:01:21;5.05;;;2.38;;
30380;SDS011;17169;50.966;11.038;2023-07-20T10:04:23;4.90;;;2.35;;
30380;SDS011;17169;50.966;11.038;2023-07-20T10:07:28;6.30;;;2.90;;
30380;SDS011;17169;50.966;11.038;2023-07-20T10:10:33;6.38;;;2.75;;
30380;SDS011;17169;50.966;11.038;2023-07-20T10:13:37;5.97;;;2.90;;
30380;SDS011;17169;50.966;11.038;2023-07-20T10:16:42;6.10;;;3.00;;
30380;SDS011;17169;50.966;11.038;2023-07-20T10:19:49;6.78;;;2.97;;
30380;SDS011;17169;50.966;11.038;2023-07-20T10:22:56;4.88;;;3.03;;
30380;SDS011;17169;50.966;11.038;2023-07-20T10:26:00;5.82;;;2.88;;
30380;SDS011;17169;50.966;11.038;2023-07-20T10:29:03;6.70;;;3.00;;
30380;SDS011;17169;50.966;11.038;2023-07-20T10:32:07;6.10;;;1.77;;
30380;SDS011;17169;50.966;11.038;2023-07-20T10:35:13;5.05;;;1.60;;
30380;SDS011;17169;50.966;11.038;2023-07-20T10:38:17;2.38;;;1.65;;
30380;SDS011;17169;50.966;11.038;2023-07-20T10:41:22;4.53;;;1.60;;
30380;SDS011;17169;50.966;11.038;2023-07-20T10:44:28;3.45;;;1.60;;
30380;SDS011;17169;50.966;11.038;2023-07-20T10:47:32;3.17;;;1.58;;
30380;SDS011;17169;50.966;11.038;2023-07-20T10:54:07;4.05;;;1.83;;
30380;SDS011;17169;50.966;11.038;2023-07-20T10:57:24;4.47;;;1.33;;
30380;SDS011;17169;50.966;11.038;2023-07-20T11:00:30;3.53;;;1.30;;
30380;SDS011;17169;50.966;11.038;2023-07-20T11:03:33;3.38;;;1.50;;
30380;SDS011;17169;50.966;11.038;2023-07-20T11:06:36;4.32;;;1.58;;
30380;SDS011;17169;50.966;11.038;2023-07-20T11:09:41;4.35;;;1.42;;
30380;SDS011;17169;50.966;11.038;2023-07-20T11:12:54;1.73;;;1.02;;
30380;SDS011;17169;50.966;11.038;2023-07-20T11:16:32;1.10;;;0.85;;
30380;SDS011;17169;50.966;11.038;2023-07-20T11:19:38;2.28;;;1.20;;
30380;SDS011;17169;50.966;11.038;2023-07-20T11:22:41;2.72;;;1.08;;
30380;SDS011;17169;50.966;11.038;2023-07-20T11:25:44;2.85;;;1.10;;
30380;SDS011;17169;50.966;11.038;2023-07-20T11:28:49;2.40;;;1.20;;
30380;SDS011;17169;50.966;11.038;2023-07-20T11:31:52;1.58;;;1.23;;
30380;SDS011;17169;50.966;11.038;2023-07-20T11:34:55;1.65;;;0.95;;
30380;SDS011;17169;50.966;11.038;2023-07-20T11:37:57;2.17;;;1.20;;
30380;SDS011;17169;50.966;11.038;2023-07-20T11:40:59;2.90;;;1.30;;
30380;SDS011;17169;50.966;11.038;2023-07-20T11:44:05;2.58;;;1.23;;
30380;SDS011;17169;50.966;11.038;2023-07-20T11:47:08;1.20;;;0.93;;
30380;SDS011;17169;50.966;11.038;2023-07-20T11:50:12;1.63;;;1.00;;
30380;SDS011;17169;50.966;11.038;2023-07-20T11:53:16;2.75;;;1.10;;
30380;SDS011;17169;50.966;11.038;2023-07-20T11:56:19;2.63;;;1.40;;
30380;SDS011;17169;50.966;11.038;2023-07-20T11:59:22;2.47;;;0.90;;
30380;SDS011;17169;50.966;11.038;2023-07-20T12:02:26;3.13;;;0.93;;
30380;SDS011;17169;50.966;11.038;2023-07-20T12:05:29;2.25;;;0.90;;
30380;SDS011;17169;50.966;11.038;2023-07-20T12:08:31;2.28;;;1.25;;
30380;SDS011;17169;50.966;11.038;2023-07-20T12:11:34;3.35;;;1.13;;
30380;SDS011;17169;50.966;11.038;2023-07-20T12:14:39;1.20;;;0.90;;
30380;SDS011;17169;50.966;11.038;2023-07-20T12:17:42;1.63;;;1.10;;
30380;SDS011;17169;50.966;11.038;2023-07-20T12:20:45;1.75;;;1.05;;
30380;SDS011;17169;50.966;11.038;2023-07-20T12:23:47;1.27;;;1.05;;
30380;SDS011;17169;50.966;11.038;2023-07-20T12:26:55;1.50;;;1.08;;
30380;SDS011;17169;50.966;11.038;2023-07-20T12:29:59;2.17;;;1.38;;
30380;SDS011;17169;50.966;11.038;2023-07-20T12:33:03;1.88;;;1.20;;
30380;SDS011;17169;50.966;11.038;2023-07-20T12:36:06;1.45;;;1.05;;
30380;SDS011;17169;50.966;11.038;2023-07-20T12:39:08;5.97;;;1.30;;
30380;SDS011;17169;50.966;11.038;2023-07-20T12:42:10;1.92;;;1.20;;
30380;SDS011;17169;50.966;11.038;2023-07-20T12:45:14;3.47;;;1.17;;
30380;SDS011;17169;50.966;11.038;2023-07-20T12:48:17;1.52;;;1.20;;
30380;SDS011;17169;50.966;11.038;2023-07-20T12:51:19;4.10;;;1.00;;
30380;SDS011;17169;50.966;11.038;2023-07-20T12:54:21;2.17;;;1.08;;
30380;SDS011;17169;50.966;11.038;2023-07-20T12:57:24;2.30;;;1.20;;
30380;SDS011;17169;50.966;11.038;2023-07-20T13:00:27;1.45;;;1.00;;
30380;SDS011;17169;50.966;11.038;2023-07-20T13:03:30;0.75;;;0.70;;
30380;SDS011;17169;50.966;11.038;2023-07-20T13:06:32;1.50;;;0.98;;
30380;SDS011;17169;50.966;11.038;2023-07-20T13:09:35;3.20;;;1.13;;
30380;SDS011;17169;50.966;11.038;2023-07-20T13:12:37;1.33;;;1.02;;
30380;SDS011;17169;50.966;11.038;2023-07-20T13:15:42;2.08;;;0.88;;
30380;SDS011;17169;50.966;11.038;2023-07-20T13:18:46;1.35;;;1.10;;
30380;SDS011;17169;50.966;11.038;2023-07-20T13:21:49;1.98;;;1.17;;
30380;SDS011;17169;50.966;11.038;2023-07-20T13:24:52;2.33;;;1.10;;
30380;SDS011;17169;50.966;11.038;2023-07-20T13:27:54;2.88;;;1.30;;
30380;SDS011;17169;50.966;11.038;2023-07-20T13:30:58;1.83;;;0.85;;
30380;SDS011;17169;50.966;11.038;2023-07-20T13:34:00;2.15;;;1.00;;
30380;SDS011;17169;50.966;11.038;2023-07-20T13:37:02;1.67;;;1.20;;
30380;SDS011;17169;50.966;11.038;2023-07-20T13:40:06;0.77;;;0.70;;
30380;SDS011;17169;50.966;11.038;2023-07-20T13:43:12;1.83;;;1.10;;
30380;SDS011;17169;50.966;11.038;2023-07-20T13:46:16;1.30;;;1.10;;
30380;SDS011;17169;50.966;11.038;2023-07-20T13:49:18;1.48;;;1.02;;
30380;SDS011;17169;50.966;11.038;2023-07-20T13:52:20;2.03;;;0.90;;
30380;SDS011;17169;50.966;11.038;2023-07-20T13:55:23;3.28;;;0.93;;
30380;SDS011;17169;50.966;11.038;2023-07-20T13:58:25;2.42;;;0.90;;
30380;SDS011;17169;50.966;11.038;2023-07-20T14:01:29;5.53;;;1.08;;
30380;SDS011;17169;50.966;11.038;2023-07-20T14:04:33;2.17;;;1.30;;
30380;SDS011;17169;50.966;11.038;2023-07-20T14:07:36;4.43;;;1.20;;
30380;SDS011;17169;50.966;11.038;2023-07-20T14:10:38;2.00;;;1.10;;
30380;SDS011;17169;50.966;11.038;2023-07-20T14:13:41;1.88;;;1.00;;
30380;SDS011;17169;50.966;11.038;2023-07-20T14:16:44;5.18;;;1.02;;
30380;SDS011;17169;50.966;11.038;2023-07-20T14:19:47;2.90;;;1.15;;
30380;SDS011;17169;50.966;11.038;2023-07-20T14:22:49;1.40;;;1.00;;
30380;SDS011;17169;50.966;11.038;2023-07-20T14:25:51;2.65;;;1.23;;
30380;SDS011;17169;50.966;11.038;2023-07-20T14:28:54;1.65;;;1.13;;
30380;SDS011;17169;50.966;11.038;2023-07-20T14:31:57;1.63;;;1.15;;
30380;SDS011;17169;50.966;11.038;2023-07-20T14:35:00;2.15;;;1.33;;
30380;SDS011;17169;50.966;11.038;2023-07-20T14:38:02;1.67;;;1.05;;
30380;SDS011;17169;50.966;11.038;2023-07-20T14:41:04;1.42;;;1.00;;
30380;SDS011;17169;50.966;11.038;2023-07-20T14:44:07;1.65;;;1.10;;
30380;SDS011;17169;50.966;11.038;2023-07-20T14:47:12;2.80;;;1.20;;
30380;SDS011;17169;50.966;11.038;2023-07-20T14:50:14;1.65;;;1.00;;
30380;SDS011;17169;50.966;11.038;2023-07-20T14:53:16;1.58;;;0.98;;
30380;SDS011;17169;50.966;11.038;2023-07-20T14:56:19;1.63;;;0.90;;
30380;SDS011;17169;50.966;11.038;2023-07-20T14:59:21;1.83;;;1.00;;
30380;SDS011;17169;50.966;11.038;2023-07-20T15:02:25;0.80;;;0.70;;
30380;SDS011;17169;50.966;11.038;2023-07-20T15:05:27;2.70;;;1.10;;
30380;SDS011;17169;50.966;11.038;2023-07-20T15:08:30;1.90;;;1.00;;
30380;SDS011;17169;50.966;11.038;2023-07-20T15:11:32;3.70;;;0.80;;
30380;SDS011;17169;50.966;11.038;2023-07-20T15:14:35;4.32;;;0.98;;
30380;SDS011;17169;50.966;11.038;2023-07-20T15:17:39;1.35;;;1.00;;
30380;SDS011;17169;50.966;11.038;2023-07-20T15:20:43;2.33;;;0.90;;
30380;SDS011;17169;50.966;11.038;2023-07-20T15:23:46;1.85;;;1.00;;
30380;SDS011;17169;50.966;11.038;2023-07-20T15:26:48;1.20;;;0.80;;
30380;SDS011;17169;50.966;11.038;2023-07-20T15:29:51;2.05;;;1.30;;
30380;SDS011;17169;50.966;11.038;2023-07-20T15:32:54;3.13;;;1.85;;
30380;SDS011;17169;50.966;11.038;2023-07-20T15:35:57;1.85;;;1.00;;
30380;SDS011;17169;50.966;11.038;2023-07-20T15:38:59;1.50;;;0.95;;
30380;SDS011;17169;50.966;11.038;2023-07-20T15:42:02;1.58;;;1.00;;
30380;SDS011;17169;50.966;11.038;2023-07-20T15:45:05;2.30;;;1.02;;
30380;SDS011;17169;50.966;11.038;2023-07-20T15:48:09;4.45;;;1.10;;
30380;SDS011;17169;50.966;11.038;2023-07-20T15:51:12;1.42;;;0.90;;
30380;SDS011;17169;50.966;11.038;2023-07-20T15:54:14;1.80;;;1.25;;
30380;SDS011;17169;50.966;11.038;2023-07-20T15:57:17;2.55;;;1.30;;
30380;SDS011;17169;50.966;11.038;2023-07-20T16:00:19;3.95;;;1.20;;
30380;SDS011;17169;50.966;11.038;2023-07-20T16:03:23;3.80;;;1.10;;
30380;SDS011;17169;50.966;11.038;2023-07-20T16:06:26;1.42;;;0.85;;
30380;SDS011;17169;50.966;11.038;2023-07-20T16:09:29;1.90;;;1.20;;
30380;SDS011;17169;50.966;11.038;2023-07-20T16:12:32;3.60;;;1.13;;
30380;SDS011;17169;50.966;11.038;2023-07-20T16:15:34;1.90;;;1.15;;
30380;SDS011;17169;50.966;11.038;2023-07-20T16:18:38;8.00;;;1.35;;
30380;SDS011;17169;50.966;11.038;2023-07-20T16:21:40;2.47;;;1.15;;
30380;SDS011;17169;50.966;11.038;2023-07-20T16:24:43;1.95;;;1.20;;
30380;SDS011;17169;50.966;11.038;2023-07-20T16:27:45;1.95;;;1.00;;
30380;SDS011;17169;50.966;11.038;2023-07-20T16:30:47;1.88;;;1.00;;
30380;SDS011;17169;50.966;11.038;2023-07-20T16:33:51;2.60;;;1.00;;
30380;SDS011;17169;50.966;11.038;2023-07-20T16:36:53;4.50;;;1.00;;
30380;SDS011;17169;50.966;11.038;2023-07-20T16:39:56;1.75;;;0.70;;
30380;SDS011;17169;50.966;11.038;2023-07-20T16:42:59;1.30;;;0.80;;
30380;SDS011;17169;50.966;11.038;2023-07-20T16:46:02;3.30;;;1.00;;
30380;SDS011;17169;50.966;11.038;2023-07-20T16:49:07;1.93;;;1.13;;
30380;SDS011;17169;50.966;11.038;2023-07-20T16:52:10;1.42;;;0.90;;
30380;SDS011;17169;50.966;11.038;2023-07-20T16:55:13;1.23;;;0.73;;
30380;SDS011;17169;50.966;11.038;2023-07-20T16:58:16;2.67;;;1.48;;
30380;SDS011;17169;50.966;11.038;2023-07-20T17:01:19;4.57;;;2.15;;
30380;SDS011;17169;50.966;11.038;2023-07-20T17:04:22;2.05;;;0.95;;
30380;SDS011;17169;50.966;11.038;2023-07-20T17:07:25;3.37;;;1.17;;
30380;SDS011;17169;50.966;11.038;2023-07-20T17:10:27;1.73;;;1.00;;
30380;SDS011;17169;50.966;11.038;2023-07-20T17:13:30;2.50;;;1.20;;
30380;SDS011;17169;50.966;11.038;2023-07-20T17:16:33;2.60;;;1.00;;
30380;SDS011;17169;50.966;11.038;2023-07-20T17:19:37;1.98;;;0.90;;
30380;SDS011;17169;50.966;11.038;2023-07-20T17:22:39;2.58;;;1.17;;
30380;SDS011;17169;50.966;11.038;2023-07-20T17:25:42;2.42;;;1.42;;
30380;SDS011;17169;50.966;11.038;2023-07-20T17:28:45;2.55;;;1.23;;
30380;SDS011;17169;50.966;11.038;2023-07-20T17:31:47;3.35;;;1.50;;
30380;SDS011;17169;50.966;11.038;2023-07-20T17:34:51;5.35;;;1.30;;
30380;SDS011;17169;50.966;11.038;2023-07-20T17:37:55;2.78;;;1.50;;
30380;SDS011;17169;50.966;11.038;2023-07-20T17:40:58;2.35;;;1.30;;
30380;SDS011;17169;50.966;11.038;2023-07-20T17:44:00;4.28;;;1.35;;
30380;SDS011;17169;50.966;11.038;2023-07-20T17:47:03;2.75;;;1.77;;
30380;SDS011;17169;50.966;11.038;2023-07-20T17:50:08;3.63;;;1.80;;
30380;SDS011;17169;50.966;11.038;2023-07-20T17:53:11;1.20;;;0.80;;
30380;SDS011;17169;50.966;11.038;2023-07-20T17:56:14;2.85;;;1.25;;
30380;SDS011;17169;50.966;11.038;2023-07-20T17:59:16;2.40;;;1.13;;
30380;SDS011;17169;50.966;11.038;2023-07-20T18:02:19;1.92;;;1.00;;
30380;SDS011;17169;50.966;11.038;2023-07-20T18:05:27;2.13;;;0.80;;
30380;SDS011;17169;50.966;11.038;2023-07-20T18:08:29;1.98;;;0.85;;
30380;SDS011;17169;50.966;11.038;2023-07-20T18:11:32;2.15;;;1.30;;